EFSI/SJY METAR and TAF weather

Enter ICAO airport designator
Station Type Date Time Source
EFSI METAR 2024/05/28 23:50 UTC NOAA

EFSI 282350Z AUTO 13003KT CAVOK 10/08 Q1016


Station Type Date Time Source
EFSI Decoded METAR 2024/05/28 23:50 UTC NOAA

Seinajoki-Ilmajok, Finland (EFSI) 62-41-37N 022-49-55E
May 28, 2024 - 07:50 PM EDT / 2024.05.28 2350 UTC
Wind: from the SE (130 degrees) at 3 MPH (3 KT):0
Visibility: greater than 7 mile(s):0
Temperature: 50 F (10 C)
Dew Point: 46 F (8 C)
Relative Humidity: 87%
Pressure (altimeter): 30.00 in. Hg (1016 hPa)
ob: EFSI 282350Z AUTO 13003KT CAVOK 10/08 Q1016
cycle: 0

Station Type Date Time Source
EFSI TAF 2012/03/06 09:42 UTC NOAA